Time;durP1;ratioP1;P1;durP2;ratioP2;P2;SDS_P1;SDS_P2;PMS_P1;PMS_P2;Temp;Humidity;BMP_temperature;BMP_pressure;BME280_temperature;BME280_humidity;BME280_pressure;Samples;Min_cycle;Max_cycle;Signal;HPM_P1;HPM_P2
2023/01/04 00:00:10;;;;;;;6.25;3.55;;;;;;;;;;6104001;19;20427;-70
2023/01/04 00:02:16;;;;;;;10.10;3.50;;;;;;;;;;6104720;19;20479;-71
2023/01/04 00:04:21;;;;;;;6.43;3.88;;;;;;;;;;6102476;19;20507;-72
2023/01/04 00:06:26;;;;;;;7.75;4.32;;;;;;;;;;6102036;19;20078;-71
2023/01/04 00:08:35;;;;;;;10.10;4.22;;;;;;;;;;6100509;19;20018;-71
2023/01/04 00:10:40;;;;;;;8.82;4.00;;;;;;;;;;6100302;19;20555;-72
2023/01/04 00:12:45;;;;;;;9.35;3.63;;;;;;;;;;6105936;19;20003;-70
2023/01/04 00:14:50;;;;;;;6.70;3.40;;;;;;;;;;6108754;19;20014;-70
2023/01/04 00:16:58;;;;;;;6.10;2.97;;;;;;;;;;6104178;19;20011;-71
2023/01/04 00:19:03;;;;;;;6.22;3.30;;;;;;;;;;6105866;19;20050;-71
2023/01/04 00:21:09;;;;;;;7.45;3.30;;;;;;;;;;6105257;19;20018;-71
2023/01/04 00:23:14;;;;;;;5.80;3.42;;;;;;;;;;6107815;19;20010;-71
2023/01/04 00:25:19;;;;;;;7.00;3.72;;;;;;;;;;6107556;19;20014;-71
2023/01/04 00:27:24;;;;;;;7.68;3.63;;;;;;;;;;6106613;19;20031;-68
2023/01/04 00:29:32;;;;;;;5.70;3.15;;;;;;;;;;6104931;19;20376;-69
2023/01/04 00:31:37;;;;;;;8.90;3.45;;;;;;;;;;6107325;19;20029;-69
2023/01/04 00:33:45;;;;;;;11.43;4.70;;;;;;;;;;6104775;19;20802;-69
2023/01/04 00:35:50;;;;;;;6.32;3.63;;;;;;;;;;6104771;19;20536;-68
2023/01/04 00:37:55;;;;;;;7.32;3.20;;;;;;;;;;6105546;19;20006;-69
2023/01/04 00:40:00;;;;;;;6.60;4.45;;;;;;;;;;6095192;19;20011;-69
2023/01/04 00:42:06;;;;;;;6.90;3.78;;;;;;;;;;6105352;19;20018;-69
2023/01/04 00:44:14;;;;;;;9.60;4.78;;;;;;;;;;6103609;19;20007;-68
2023/01/04 00:46:19;;;;;;;8.32;4.75;;;;;;;;;;6104590;19;20047;-68
2023/01/04 00:48:27;;;;;;;10.27;4.80;;;;;;;;;;6106677;19;20021;-70
2023/01/04 00:50:34;;;;;;;7.85;4.45;;;;;;;;;;6106225;19;20014;-68
2023/01/04 00:52:39;;;;;;;10.50;5.25;;;;;;;;;;6101495;19;20015;-69
2023/01/04 00:54:45;;;;;;;7.53;4.55;;;;;;;;;;6105771;19;20031;-69
2023/01/04 00:56:50;;;;;;;10.57;5.13;;;;;;;;;;6105149;19;20054;-68
2023/01/04 00:58:57;;;;;;;8.32;4.93;;;;;;;;;;6106857;19;20074;-69
2023/01/04 01:01:06;;;;;;;10.48;5.82;;;;;;;;;;6105104;19;20015;-69
2023/01/04 01:03:12;;;;;;;8.20;4.63;;;;;;;;;;6104745;19;20021;-69
2023/01/04 01:05:17;;;;;;;7.28;4.72;;;;;;;;;;6103232;19;20351;-69
2023/01/04 01:07:24;;;;;;;10.85;5.55;;;;;;;;;;6104945;19;20043;-69
2023/01/04 01:09:29;;;;;;;9.25;5.30;;;;;;;;;;6101742;19;20019;-68
2023/01/04 01:11:35;;;;;;;9.93;4.80;;;;;;;;;;6104688;19;20014;-68
2023/01/04 01:13:41;;;;;;;11.68;5.80;;;;;;;;;;6101063;19;20010;-70
2023/01/04 01:15:45;;;;;;;11.52;5.60;;;;;;;;;;6103632;19;20011;-71
2023/01/04 01:17:50;;;;;;;9.82;5.47;;;;;;;;;;6100507;19;20384;-70
2023/01/04 01:19:55;;;;;;;13.13;5.80;;;;;;;;;;6103884;19;20011;-71
2023/01/04 01:22:00;;;;;;;9.63;5.97;;;;;;;;;;6101530;19;20013;-72
2023/01/04 01:24:08;;;;;;;13.27;6.25;;;;;;;;;;6101884;19;20105;-71
2023/01/04 01:26:17;;;;;;;8.18;5.32;;;;;;;;;;6102234;19;20081;-71
2023/01/04 01:28:23;;;;;;;12.45;5.97;;;;;;;;;;6101204;19;20018;-70
2023/01/04 01:30:28;;;;;;;10.85;6.07;;;;;;;;;;6100981;19;20343;-70
2023/01/04 01:32:33;;;;;;;8.95;5.03;;;;;;;;;;6101401;19;20011;-70
2023/01/04 01:34:38;;;;;;;11.02;5.28;;;;;;;;;;6101032;19;20014;-69
2023/01/04 01:36:43;;;;;;;8.30;5.13;;;;;;;;;;6102005;19;20010;-69
2023/01/04 01:38:48;;;;;;;11.50;4.85;;;;;;;;;;6102700;19;20034;-70
2023/01/04 01:40:56;;;;;;;9.38;4.70;;;;;;;;;;6101427;19;20010;-69
2023/01/04 01:43:01;;;;;;;10.60;5.22;;;;;;;;;;6100447;19;20560;-69
2023/01/04 01:45:10;;;;;;;7.68;4.43;;;;;;;;;;6101158;19;20006;-69
2023/01/04 01:47:17;;;;;;;9.20;4.72;;;;;;;;;;6104625;19;20078;-68
2023/01/04 01:49:26;;;;;;;7.53;4.13;;;;;;;;;;6101034;19;20357;-68
2023/01/04 01:51:32;;;;;;;7.65;4.13;;;;;;;;;;6103657;19;20014;-68
2023/01/04 01:53:39;;;;;;;8.82;4.28;;;;;;;;;;6101063;19;20557;-68
2023/01/04 01:55:45;;;;;;;7.65;3.92;;;;;;;;;;6103315;19;20018;-69
2023/01/04 01:57:54;;;;;;;9.30;4.97;;;;;;;;;;6100465;19;20011;-68
2023/01/04 02:00:02;;;;;;;7.18;4.25;;;;;;;;;;6105799;19;20721;-69
2023/01/04 02:02:07;;;;;;;12.23;4.47;;;;;;;;;;6103886;19;20023;-69
2023/01/04 02:04:13;;;;;;;8.55;4.43;;;;;;;;;;6106656;19;20333;-69
2023/01/04 02:06:21;;;;;;;9.07;4.57;;;;;;;;;;6104325;19;20049;-70
2023/01/04 02:08:26;;;;;;;10.10;4.60;;;;;;;;;;6104034;19;20022;-68
2023/01/04 02:10:32;;;;;;;7.30;4.28;;;;;;;;;;6103770;19;20479;-67
2023/01/04 02:12:37;;;;;;;9.68;4.70;;;;;;;;;;6105401;19;20017;-70
2023/01/04 02:14:44;;;;;;;8.40;4.57;;;;;;;;;;6104081;19;20027;-67
2023/01/04 02:17:02;;;;;;;10.48;4.88;;;;;;;;;;6108880;19;20025;-68
2023/01/04 02:19:26;;;;;;;9.27;3.88;;;;;;;;;;6111700;19;20015;-68
2023/01/04 02:21:37;;;;;;;10.07;4.30;;;;;;;;;;6108373;19;20038;-70
2023/01/04 02:24:05;;;;;;;6.70;3.78;;;;;;;;;;6111835;19;20563;-68
2023/01/04 02:26:35;;;;;;;11.45;4.82;;;;;;;;;;6107559;19;20408;-69
2023/01/04 02:28:58;;;;;;;11.65;4.85;;;;;;;;;;6110859;19;20014;-69
2023/01/04 02:31:28;;;;;;;8.00;4.30;;;;;;;;;;6111969;19;20034;-69
2023/01/04 02:33:43;;;;;;;10.77;4.97;;;;;;;;;;6109217;19;20015;-69
2023/01/04 02:35:56;;;;;;;9.93;5.95;;;;;;;;;;6108995;19;20018;-69
2023/01/04 02:38:07;;;;;;;8.95;5.63;;;;;;;;;;6107677;19;20028;-69
2023/01/04 02:40:20;;;;;;;7.57;4.85;;;;;;;;;;6110553;19;20090;-69
2023/01/04 02:44:56;;;;;;;10.00;5.53;;;;;;;;;;6108885;19;20007;-70
2023/01/04 02:47:06;;;;;;;11.38;5.63;;;;;;;;;;6108550;19;20014;-69
2023/01/04 02:51:33;;;;;;;11.50;5.20;;;;;;;;;;6108446;19;20010;-68
2023/01/04 02:53:43;;;;;;;9.45;4.82;;;;;;;;;;6108760;19;20285;-69
2023/01/04 02:55:54;;;;;;;8.85;5.00;;;;;;;;;;6109666;19;20014;-68
2023/01/04 02:58:04;;;;;;;7.13;4.03;;;;;;;;;;6104284;19;20428;-67
2023/01/04 03:00:29;;;;;;;8.02;4.30;;;;;;;;;;6109226;19;20026;-68
2023/01/04 03:07:40;;;;;;;8.10;4.63;;;;;;;;;;6106093;19;20439;-68
2023/01/04 03:09:49;;;;;;;7.68;4.82;;;;;;;;;;6106711;19;20014;-68
2023/01/04 03:14:18;;;;;;;8.73;5.60;;;;;;;;;;6104705;19;20495;-68
2023/01/04 03:16:39;;;;;;;9.43;5.05;;;;;;;;;;6107915;19;20014;-71
2023/01/04 03:18:52;;;;;;;8.27;4.55;;;;;;;;;;6105237;19;20010;-69
2023/01/04 03:20:58;;;;;;;10.00;5.55;;;;;;;;;;6102673;19;20035;-69
2023/01/04 03:37:15;;;;;;;6.10;3.75;;;;;;;;;;6104368;19;20613;-69
2023/01/04 03:48:54;;;;;;;8.73;5.00;;;;;;;;;;6105003;19;20042;-69
2023/01/04 03:51:09;;;;;;;9.13;4.82;;;;;;;;;;6106901;19;20019;-68
2023/01/04 03:53:14;;;;;;;9.02;4.72;;;;;;;;;;6107161;19;20012;-70
2023/01/04 03:55:20;;;;;;;6.75;4.22;;;;;;;;;;6103804;19;20408;-69
2023/01/04 03:57:25;;;;;;;11.32;6.40;;;;;;;;;;6104514;19;20077;-68
2023/01/04 03:59:32;;;;;;;9.90;5.18;;;;;;;;;;6106865;19;20392;-69
2023/01/04 04:01:38;;;;;;;12.23;6.53;;;;;;;;;;6102382;19;20019;-69
2023/01/04 04:08:30;;;;;;;;;;;;;;;;;;6105928;19;20054;-67
2023/01/04 04:10:37;;;;;;;9.43;4.88;;;;;;;;;;6105003;19;19938;-68
2023/01/04 04:12:43;;;;;;;10.95;5.82;;;;;;;;;;6101592;19;20649;-68
2023/01/04 04:14:48;;;;;;;9.15;4.78;;;;;;;;;;6104826;19;20419;-68
2023/01/04 04:16:53;;;;;;;9.45;4.88;;;;;;;;;;6106174;19;20051;-69
2023/01/04 04:18:58;;;;;;;13.98;5.65;;;;;;;;;;6106451;19;20051;-69
2023/01/04 04:21:14;;;;;;;9.65;4.78;;;;;;;;;;6103243;19;20014;-69
2023/01/04 04:23:19;;;;;;;12.10;6.85;;;;;;;;;;6104997;19;20011;-69
2023/01/04 04:25:24;;;;;;;9.05;4.55;;;;;;;;;;6104989;19;20031;-69
2023/01/04 04:27:29;;;;;;;11.52;4.88;;;;;;;;;;6105735;19;20018;-69
2023/01/04 04:29:34;;;;;;;7.90;4.97;;;;;;;;;;6103890;19;20021;-69
2023/01/04 04:31:39;;;;;;;8.93;5.03;;;;;;;;;;6105059;19;20090;-68
2023/01/04 04:33:44;;;;;;;8.57;4.53;;;;;;;;;;6106059;19;20028;-69
2023/01/04 04:35:52;;;;;;;8.90;4.43;;;;;;;;;;6103542;19;20018;-68
2023/01/04 04:37:59;;;;;;;14.32;7.00;;;;;;;;;;6101399;19;20018;-69
2023/01/04 04:40:04;;;;;;;11.63;5.30;;;;;;;;;;6101464;19;20709;-69
2023/01/04 04:42:07;;;;;;;12.00;5.25;;;;;;;;;;6104617;19;20062;-69
2023/01/04 04:44:14;;;;;;;8.93;5.00;;;;;;;;;;6104782;19;20014;-69
2023/01/04 04:46:19;;;;;;;8.80;5.13;;;;;;;;;;6104416;19;20010;-69
2023/01/04 04:48:24;;;;;;;9.85;5.40;;;;;;;;;;6106214;19;20490;-70
2023/01/04 04:50:29;;;;;;;11.30;5.38;;;;;;;;;;6104130;19;20031;-68
2023/01/04 04:52:34;;;;;;;8.57;5.45;;;;;;;;;;6101918;19;20042;-69
2023/01/04 04:54:45;;;;;;;10.70;5.55;;;;;;;;;;6104708;19;20082;-69
2023/01/04 04:56:51;;;;;;;9.32;5.50;;;;;;;;;;6103959;19;20034;-69
2023/01/04 04:58:56;;;;;;;12.75;5.97;;;;;;;;;;6103420;19;20459;-69
2023/01/04 05:01:03;;;;;;;8.90;5.60;;;;;;;;;;6101698;19;20011;-70
2023/01/04 05:03:08;;;;;;;10.35;5.47;;;;;;;;;;6103807;19;20253;-69
2023/01/04 05:05:13;;;;;;;9.75;5.55;;;;;;;;;;6103070;19;20475;-68
2023/01/04 05:07:18;;;;;;;11.38;5.35;;;;;;;;;;6103527;19;20015;-68
2023/01/04 05:09:23;;;;;;;8.93;5.00;;;;;;;;;;6104892;19;20018;-68
2023/01/04 05:13:48;;;;;;;7.90;4.65;;;;;;;;;;6105008;19;20084;-69
2023/01/04 05:15:55;;;;;;;7.40;3.75;;;;;;;;;;6093163;19;20056;-69
2023/01/04 05:18:00;;;;;;;8.68;4.65;;;;;;;;;;6103606;19;20028;-69
2023/01/04 05:20:06;;;;;;;9.20;4.60;;;;;;;;;;6101606;19;20015;-69
2023/01/04 05:22:13;;;;;;;9.27;5.15;;;;;;;;;;6102078;19;20014;-69
2023/01/04 05:24:18;;;;;;;10.18;5.60;;;;;;;;;;6081520;19;20119;-69
2023/01/04 05:26:24;;;;;;;11.38;5.82;;;;;;;;;;6101962;19;20017;-68
2023/01/04 05:28:31;;;;;;;8.45;5.47;;;;;;;;;;6102941;19;20101;-70
2023/01/04 05:32:54;;;;;;;9.25;5.63;;;;;;;;;;6100938;19;20020;-69
2023/01/04 05:35:02;;;;;;;10.07;5.72;;;;;;;;;;6100116;19;20014;-69
2023/01/04 05:37:07;;;;;;;8.75;5.32;;;;;;;;;;6103747;19;20477;-69
2023/01/04 05:39:12;;;;;;;8.95;4.78;;;;;;;;;;6100620;19;20841;-69
2023/01/04 05:43:40;;;;;;;13.07;5.18;;;;;;;;;;6106626;19;20491;-69
2023/01/04 05:45:48;;;;;;;8.15;4.40;;;;;;;;;;6101305;19;20035;-69
2023/01/04 05:47:55;;;;;;;8.50;4.70;;;;;;;;;;6098895;19;20023;-68
2023/01/04 05:49:59;;;;;;;8.90;5.30;;;;;;;;;;6106055;19;20022;-69
2023/01/04 05:52:05;;;;;;;9.55;4.97;;;;;;;;;;6105033;19;20075;-71
2023/01/04 05:54:13;;;;;;;10.32;5.40;;;;;;;;;;6104850;19;20054;-70
2023/01/04 05:56:25;;;;;;;8.05;4.35;;;;;;;;;;6102755;19;20018;-70
2023/01/04 05:58:29;;;;;;;10.75;5.00;;;;;;;;;;6100783;19;20392;-70
2023/01/04 06:00:37;;;;;;;10.85;4.97;;;;;;;;;;6102856;19;20074;-70
2023/01/04 06:02:43;;;;;;;9.75;4.60;;;;;;;;;;6102056;19;20098;-70
2023/01/04 06:04:48;;;;;;;7.80;4.15;;;;;;;;;;6102168;19;20018;-70
2023/01/04 06:07:02;;;;;;;10.02;5.20;;;;;;;;;;6080910;19;20007;-70
2023/01/04 06:09:07;;;;;;;9.20;4.30;;;;;;;;;;6102528;19;20030;-69
2023/01/04 06:11:14;;;;;;;9.88;4.45;;;;;;;;;;6101937;19;20010;-69
2023/01/04 06:13:19;;;;;;;9.98;4.65;;;;;;;;;;6101847;19;20073;-68
2023/01/04 06:15:24;;;;;;;8.77;4.57;;;;;;;;;;6101146;19;20006;-68
2023/01/04 06:17:35;;;;;;;10.20;4.72;;;;;;;;;;6099711;19;20011;-69
2023/01/04 06:19:40;;;;;;;8.27;4.13;;;;;;;;;;6105433;19;20010;-69
2023/01/04 06:21:45;;;;;;;11.90;4.10;;;;;;;;;;6105482;19;20007;-70
2023/01/04 06:23:50;;;;;;;8.50;4.13;;;;;;;;;;6099005;19;20018;-68
2023/01/04 06:25:55;;;;;;;8.45;4.07;;;;;;;;;;6101333;19;20018;-69
2023/01/04 06:27:59;;;;;;;8.10;3.72;;;;;;;;;;6101879;19;20010;-69
2023/01/04 06:30:05;;;;;;;9.63;4.72;;;;;;;;;;6098772;19;20014;-70
2023/01/04 06:32:11;;;;;;;10.07;4.75;;;;;;;;;;6080233;19;20036;-69
2023/01/04 06:34:19;;;;;;;14.30;4.53;;;;;;;;;;6098455;19;20006;-69
2023/01/04 06:36:34;;;;;;;10.38;4.70;;;;;;;;;;6099978;19;20015;-70
2023/01/04 06:38:39;;;;;;;9.93;5.53;;;;;;;;;;6103055;19;20082;-69
2023/01/04 06:40:44;;;;;;;13.48;5.15;;;;;;;;;;6099454;19;20018;-69
2023/01/04 06:42:49;;;;;;;9.82;5.10;;;;;;;;;;6100781;19;20011;-71
2023/01/04 06:44:54;;;;;;;8.95;4.43;;;;;;;;;;6101244;19;20011;-71
2023/01/04 06:46:59;;;;;;;9.18;4.47;;;;;;;;;;6101268;19;20066;-71
2023/01/04 06:49:04;;;;;;;9.27;4.60;;;;;;;;;;6103079;19;20550;-72
2023/01/04 06:51:12;;;;;;;7.63;4.20;;;;;;;;;;6100506;19;20086;-71
2023/01/04 06:53:17;;;;;;;9.90;5.15;;;;;;;;;;6101321;19;20015;-71
2023/01/04 06:55:22;;;;;;;11.88;4.88;;;;;;;;;;6101079;19;20014;-71
2023/01/04 06:57:26;;;;;;;14.73;4.90;;;;;;;;;;6097792;19;20042;-71
2023/01/04 06:59:32;;;;;;;9.07;4.28;;;;;;;;;;6097591;19;20125;-71
2023/01/04 07:01:37;;;;;;;9.77;4.57;;;;;;;;;;6101000;19;20025;-69
2023/01/04 07:03:43;;;;;;;10.98;4.78;;;;;;;;;;6107458;19;20082;-70
2023/01/04 07:05:48;;;;;;;10.27;4.43;;;;;;;;;;6103241;19;20014;-69
2023/01/04 07:07:55;;;;;;;11.57;4.72;;;;;;;;;;6106015;19;20014;-68
2023/01/04 07:10:08;;;;;;;14.02;4.60;;;;;;;;;;6106656;19;20475;-69
2023/01/04 07:12:13;;;;;;;10.73;4.70;;;;;;;;;;6109378;19;20006;-70
2023/01/04 07:14:18;;;;;;;10.27;4.95;;;;;;;;;;6108444;19;20023;-71
2023/01/04 07:16:24;;;;;;;12.02;5.30;;;;;;;;;;6106736;19;20042;-70
2023/01/04 07:18:29;;;;;;;12.40;5.40;;;;;;;;;;6104622;19;20019;-71
2023/01/04 07:20:34;;;;;;;11.60;5.50;;;;;;;;;;6107676;19;20333;-70
2023/01/04 07:22:39;;;;;;;12.60;4.97;;;;;;;;;;6104681;19;20003;-69
2023/01/04 07:24:46;;;;;;;11.88;4.28;;;;;;;;;;6105887;19;20065;-71
2023/01/04 07:26:51;;;;;;;10.32;4.32;;;;;;;;;;6107229;19;20038;-72
2023/01/04 07:31:17;;;;;;;12.20;4.30;;;;;;;;;;6104120;19;20094;-69
2023/01/04 07:33:22;;;;;;;14.23;4.57;;;;;;;;;;6106650;19;20018;-70
2023/01/04 07:35:28;;;;;;;9.10;4.13;;;;;;;;;;6105833;19;20026;-70
2023/01/04 07:37:33;;;;;;;8.68;3.75;;;;;;;;;;6105060;19;20014;-70
2023/01/04 07:39:38;;;;;;;11.02;5.13;;;;;;;;;;6104154;19;20014;-70
2023/01/04 07:41:46;;;;;;;11.23;4.40;;;;;;;;;;6104002;19;20015;-70
2023/01/04 07:43:51;;;;;;;10.35;4.32;;;;;;;;;;6103427;19;20022;-70
2023/01/04 07:45:56;;;;;;;9.40;4.70;;;;;;;;;;6105456;19;20007;-70
2023/01/04 07:48:03;;;;;;;12.40;4.80;;;;;;;;;;6103079;19;20018;-71
2023/01/04 07:50:09;;;;;;;9.30;3.85;;;;;;;;;;6104217;19;20023;-72
2023/01/04 07:52:13;;;;;;;10.02;3.67;;;;;;;;;;6106122;19;20021;-72
2023/01/04 07:54:19;;;;;;;7.70;3.35;;;;;;;;;;6106498;19;20507;-71
2023/01/04 07:56:24;;;;;;;7.63;3.30;;;;;;;;;;6107440;19;20018;-71
2023/01/04 07:58:38;;;;;;;7.22;3.00;;;;;;;;;;6106147;19;20089;-72
2023/01/04 08:00:43;;;;;;;11.52;3.33;;;;;;;;;;6106116;19;20007;-71
2023/01/04 08:02:50;;;;;;;8.82;3.67;;;;;;;;;;6106398;19;20014;-72
2023/01/04 08:04:57;;;;;;;10.40;3.03;;;;;;;;;;6104458;19;20017;-70
2023/01/04 08:07:02;;;;;;;8.52;3.60;;;;;;;;;;6109059;19;20015;-70
2023/01/04 08:09:08;;;;;;;15.45;3.95;;;;;;;;;;6107771;19;20034;-70
2023/01/04 08:11:14;;;;;;;18.15;4.95;;;;;;;;;;6106192;19;20610;-70
2023/01/04 08:13:19;;;;;;;7.95;3.45;;;;;;;;;;6105653;19;20022;-70
2023/01/04 08:15:30;;;;;;;12.15;4.05;;;;;;;;;;6105064;19;20011;-70
2023/01/04 08:17:35;;;;;;;10.98;3.83;;;;;;;;;;6106474;19;20011;-70
2023/01/04 08:19:40;;;;;;;8.63;3.95;;;;;;;;;;6106817;19;20011;-70
2023/01/04 08:21:45;;;;;;;11.20;3.90;;;;;;;;;;6104024;19;20019;-73
2023/01/04 08:23:51;;;;;;;14.75;4.20;;;;;;;;;;6103563;19;20014;-70
2023/01/04 08:25:55;;;;;;;11.57;3.70;;;;;;;;;;6107349;19;20027;-71
2023/01/04 08:28:01;;;;;;;9.88;4.13;;;;;;;;;;6107325;19;20022;-71
2023/01/04 08:30:07;;;;;;;12.20;4.50;;;;;;;;;;6108343;19;20472;-73
2023/01/04 08:32:14;;;;;;;18.00;4.72;;;;;;;;;;6106213;19;26265;-72
2023/01/04 08:34:19;;;;;;;11.93;4.72;;;;;;;;;;6080866;19;20066;-71
2023/01/04 08:36:26;;;;;;;17.63;5.28;;;;;;;;;;6103735;19;20475;-71
2023/01/04 08:38:31;;;;;;;11.07;4.38;;;;;;;;;;6104420;19;20010;-70
2023/01/04 08:40:56;;;;;;;18.25;5.45;;;;;;;;;;6106729;19;20787;-70
2023/01/04 08:43:10;;;;;;;12.98;4.28;;;;;;;;;;6105223;19;20020;-69
2023/01/04 08:45:15;;;;;;;24.55;4.47;;;;;;;;;;6104114;19;20011;-70
2023/01/04 08:47:23;;;;;;;12.65;4.22;;;;;;;;;;6107273;19;20022;-69
2023/01/04 08:49:28;;;;;;;17.42;4.60;;;;;;;;;;6082951;19;20398;-70
2023/01/04 08:51:33;;;;;;;12.90;4.05;;;;;;;;;;6103240;19;20028;-70
2023/01/04 08:53:40;;;;;;;15.13;5.30;;;;;;;;;;6101566;19;20018;-69
2023/01/04 08:55:51;;;;;;;14.10;4.07;;;;;;;;;;6105067;19;20035;-70
2023/01/04 08:57:56;;;;;;;12.27;4.65;;;;;;;;;;6104421;19;20011;-70
2023/01/04 09:00:01;;;;;;;12.75;4.13;;;;;;;;;;6097231;19;20041;-69
2023/01/04 09:02:06;;;;;;;14.90;4.38;;;;;;;;;;6067719;19;20661;-70
2023/01/04 09:04:13;;;;;;;14.43;4.13;;;;;;;;;;6106047;19;20020;-69
2023/01/04 09:06:19;;;;;;;16.55;4.25;;;;;;;;;;6104910;19;20022;-70
2023/01/04 09:08:26;;;;;;;15.25;3.40;;;;;;;;;;6084664;19;20037;-69
2023/01/04 09:10:33;;;;;;;12.35;4.35;;;;;;;;;;6102862;19;20007;-69
2023/01/04 09:12:41;;;;;;;13.73;3.63;;;;;;;;;;6084639;19;20010;-69
2023/01/04 09:14:46;;;;;;;19.85;4.60;;;;;;;;;;6095375;19;20668;-72
2023/01/04 09:16:51;;;;;;;13.65;3.10;;;;;;;;;;6103554;19;20022;-72
2023/01/04 09:18:56;;;;;;;11.38;3.60;;;;;;;;;;6101483;19;20558;-72
2023/01/04 09:21:07;;;;;;;15.43;4.32;;;;;;;;;;6075190;19;20466;-69
2023/01/04 09:23:13;;;;;;;12.35;4.20;;;;;;;;;;6098694;19;20109;-69
2023/01/04 09:25:18;;;;;;;15.05;4.05;;;;;;;;;;6097832;19;20015;-69
2023/01/04 09:27:23;;;;;;;11.15;2.90;;;;;;;;;;6101621;19;20015;-69
2023/01/04 09:29:29;;;;;;;14.52;5.10;;;;;;;;;;6076696;19;20017;-69
2023/01/04 09:31:34;;;;;;;12.57;4.47;;;;;;;;;;6101654;19;20767;-69
2023/01/04 09:33:39;;;;;;;14.68;3.92;;;;;;;;;;6103624;19;20015;-69
2023/01/04 09:36:10;;;;;;;13.25;3.88;;;;;;;;;;6105301;19;20010;-70
2023/01/04 09:38:15;;;;;;;21.10;4.13;;;;;;;;;;6101838;19;20014;-71
2023/01/04 09:40:25;;;;;;;9.65;3.47;;;;;;;;;;6105453;19;20051;-69
2023/01/04 09:42:32;;;;;;;14.43;3.58;;;;;;;;;;6079462;19;20586;-69
2023/01/04 09:44:45;;;;;;;11.80;3.40;;;;;;;;;;6107089;19;20037;-70
2023/01/04 09:47:14;;;;;;;20.88;4.32;;;;;;;;;;6104579;19;20427;-69
2023/01/04 09:49:22;;;;;;;10.32;4.03;;;;;;;;;;6098491;19;20483;-70
2023/01/04 09:51:35;;;;;;;12.18;4.78;;;;;;;;;;6099845;19;20046;-69
2023/01/04 09:53:44;;;;;;;11.95;3.28;;;;;;;;;;6097726;19;20018;-71
2023/01/04 09:55:50;;;;;;;15.68;3.40;;;;;;;;;;6096068;19;20038;-69
2023/01/04 09:57:58;;;;;;;14.48;3.63;;;;;;;;;;6102103;19;20019;-69
2023/01/04 10:00:07;;;;;;;10.13;3.20;;;;;;;;;;6100256;19;20089;-69
2023/01/04 10:02:15;;;;;;;17.50;4.53;;;;;;;;;;6101263;19;20014;-70
2023/01/04 10:04:26;;;;;;;16.20;3.67;;;;;;;;;;6097622;19;20011;-68
2023/01/04 10:06:36;;;;;;;18.75;3.38;;;;;;;;;;6101442;19;20015;-69
2023/01/04 10:08:42;;;;;;;16.10;3.75;;;;;;;;;;6102042;19;20034;-69
2023/01/04 10:10:51;;;;;;;12.13;3.03;;;;;;;;;;6076301;19;20019;-69
2023/01/04 10:13:02;;;;;;;15.00;3.03;;;;;;;;;;6098147;19;20014;-69
2023/01/04 10:15:21;;;;;;;16.27;3.03;;;;;;;;;;6099366;19;20031;-68
2023/01/04 10:17:36;;;;;;;12.43;3.88;;;;;;;;;;6097844;19;20017;-69
2023/01/04 10:20:21;;;;;;;12.43;2.83;;;;;;;;;;6099998;19;22266;-69
2023/01/04 10:22:52;;;;;;;9.70;2.85;;;;;;;;;;6094187;19;20014;-69
2023/01/04 10:25:09;;;;;;;10.95;3.85;;;;;;;;;;6101468;19;20565;-69
2023/01/04 10:27:21;;;;;;;5.60;2.15;;;;;;;;;;6098072;19;20010;-69
2023/01/04 10:29:39;;;;;;;3.25;2.05;;;;;;;;;;6102172;19;20014;-71
2023/01/04 10:31:48;;;;;;;8.90;3.35;;;;;;;;;;6105470;19;20019;-70
2023/01/04 10:34:00;;;;;;;10.73;2.70;;;;;;;;;;6102012;19;20119;-70
2023/01/04 10:36:05;;;;;;;6.97;2.50;;;;;;;;;;6103647;19;20006;-69
2023/01/04 10:38:18;;;;;;;9.80;2.85;;;;;;;;;;6108463;19;20014;-69
2023/01/04 10:40:23;;;;;;;10.38;2.95;;;;;;;;;;6103924;19;20035;-69
2023/01/04 10:42:34;;;;;;;8.65;2.50;;;;;;;;;;6105113;19;20554;-69
2023/01/04 10:44:43;;;;;;;7.45;3.58;;;;;;;;;;6108448;19;20022;-70
2023/01/04 10:46:52;;;;;;;9.63;2.65;;;;;;;;;;6107679;19;20522;-69
2023/01/04 10:49:02;;;;;;;6.07;2.42;;;;;;;;;;6110260;19;20724;-69
2023/01/04 10:51:10;;;;;;;8.02;2.65;;;;;;;;;;6107269;19;20498;-70
2023/01/04 10:53:21;;;;;;;7.45;2.85;;;;;;;;;;6108672;19;20037;-69
2023/01/04 10:55:31;;;;;;;6.82;2.40;;;;;;;;;;6105775;19;20607;-70
2023/01/04 10:57:40;;;;;;;4.53;2.33;;;;;;;;;;6107338;19;20050;-70
2023/01/04 10:59:50;;;;;;;10.50;2.60;;;;;;;;;;6106038;19;20139;-69
2023/01/04 11:01:58;;;;;;;8.15;2.85;;;;;;;;;;6109719;19;20022;-69
2023/01/04 11:04:09;;;;;;;5.93;2.22;;;;;;;;;;6106870;19;20007;-70
2023/01/04 11:06:18;;;;;;;7.38;3.38;;;;;;;;;;6106235;19;20014;-69
2023/01/04 11:08:35;;;;;;;7.97;2.92;;;;;;;;;;6101918;19;20019;-69
2023/01/04 11:10:46;;;;;;;9.25;3.17;;;;;;;;;;6107719;19;20309;-69
2023/01/04 11:12:51;;;;;;;6.03;2.13;;;;;;;;;;6106023;19;20015;-69
2023/01/04 11:14:58;;;;;;;8.68;2.38;;;;;;;;;;6107378;19;20010;-71
2023/01/04 11:17:05;;;;;;;8.18;2.25;;;;;;;;;;6106753;19;20011;-73
2023/01/04 11:19:12;;;;;;;7.10;2.53;;;;;;;;;;6105653;19;20039;-72
2023/01/04 11:21:20;;;;;;;11.30;2.50;;;;;;;;;;6104172;19;20015;-72
2023/01/04 11:23:27;;;;;;;5.30;2.75;;;;;;;;;;6105561;19;20042;-72
2023/01/04 11:25:37;;;;;;;12.52;2.70;;;;;;;;;;6086765;19;20198;-73
2023/01/04 11:27:48;;;;;;;14.32;3.75;;;;;;;;;;6107046;19;20018;-73
2023/01/04 11:29:57;;;;;;;9.13;2.80;;;;;;;;;;6106744;19;20022;-72
2023/01/04 11:32:07;;;;;;;7.53;2.35;;;;;;;;;;6109999;19;20014;-73
2023/01/04 11:34:12;;;;;;;13.75;3.60;;;;;;;;;;6109926;19;20628;-72
2023/01/04 11:36:35;;;;;;;14.07;2.80;;;;;;;;;;6109135;19;20019;-73
2023/01/04 11:38:57;;;;;;;11.88;2.97;;;;;;;;;;6106108;19;20014;-72
2023/01/04 11:41:04;;;;;;;11.25;2.92;;;;;;;;;;6109061;19;20255;-73
2023/01/04 11:43:21;;;;;;;7.97;3.05;;;;;;;;;;6110041;19;20668;-73
2023/01/04 11:45:28;;;;;;;19.15;3.72;;;;;;;;;;6110248;19;20019;-73
2023/01/04 11:47:33;;;;;;;10.40;3.45;;;;;;;;;;6106950;19;20010;-73
2023/01/04 11:49:39;;;;;;;17.48;4.13;;;;;;;;;;6109789;19;20018;-73
2023/01/04 11:51:44;;;;;;;11.75;3.25;;;;;;;;;;6109891;19;20011;-73
2023/01/04 11:53:58;;;;;;;13.23;2.90;;;;;;;;;;6107380;19;20174;-73
2023/01/04 11:56:16;;;;;;;10.25;2.88;;;;;;;;;;6111006;19;20015;-70
2023/01/04 11:58:21;;;;;;;11.98;3.00;;;;;;;;;;6105895;19;20022;-70
2023/01/04 12:00:26;;;;;;;10.35;2.40;;;;;;;;;;6105506;19;20018;-70
2023/01/04 12:02:31;;;;;;;11.38;3.13;;;;;;;;;;6106142;19;20006;-70
2023/01/04 12:04:56;;;;;;;18.45;3.45;;;;;;;;;;6099591;19;20842;-73
2023/01/04 12:07:04;;;;;;;15.00;3.67;;;;;;;;;;6100091;19;20776;-73
2023/01/04 12:09:14;;;;;;;15.15;4.00;;;;;;;;;;6105406;19;20018;-72
2023/01/04 12:11:23;;;;;;;13.95;3.60;;;;;;;;;;6103333;19;20019;-72
2023/01/04 12:13:29;;;;;;;10.85;2.83;;;;;;;;;;6110455;19;20697;-73
2023/01/04 12:15:39;;;;;;;13.43;3.17;;;;;;;;;;6107271;19;20094;-72
2023/01/04 12:17:49;;;;;;;12.40;3.80;;;;;;;;;;6102664;19;20010;-72
2023/01/04 12:19:56;;;;;;;14.13;3.05;;;;;;;;;;6100952;19;20018;-72
2023/01/04 12:22:03;;;;;;;11.00;3.42;;;;;;;;;;6102847;19;20011;-72
2023/01/04 12:24:09;;;;;;;12.07;4.20;;;;;;;;;;6102541;19;20025;-70
2023/01/04 12:26:17;;;;;;;17.38;3.78;;;;;;;;;;6103627;19;20019;-70
2023/01/04 12:28:34;;;;;;;11.30;3.13;;;;;;;;;;6100685;19;20097;-71
2023/01/04 12:30:44;;;;;;;12.48;2.95;;;;;;;;;;6100884;19;20553;-71
2023/01/04 12:32:49;;;;;;;19.88;4.78;;;;;;;;;;6099647;19;20604;-70
2023/01/04 12:34:54;;;;;;;18.05;3.70;;;;;;;;;;6102002;19;20229;-70
2023/01/04 12:37:05;;;;;;;13.38;4.32;;;;;;;;;;6102876;19;20025;-72
2023/01/04 12:39:40;;;;;;;12.25;3.45;;;;;;;;;;6104477;19;20010;-70
2023/01/04 12:42:14;;;;;;;15.30;4.38;;;;;;;;;;6103304;19;20471;-70
2023/01/04 12:44:50;;;;;;;14.35;3.28;;;;;;;;;;6102428;19;20010;-72
2023/01/04 12:49:45;;;;;;;9.65;2.78;;;;;;;;;;6102987;19;20010;-72
2023/01/04 12:52:44;;;;;;;10.18;3.38;;;;;;;;;;6101297;19;20025;-72
2023/01/04 12:55:42;;;;;;;12.63;2.95;;;;;;;;;;6098964;19;20011;-70
2023/01/04 12:57:48;;;;;;;14.00;4.28;;;;;;;;;;6103095;19;20018;-70
2023/01/04 12:59:57;;;;;;;16.85;3.95;;;;;;;;;;6099518;19;20576;-70
2023/01/04 13:02:20;;;;;;;14.65;3.00;;;;;;;;;;6101186;19;20377;-70
2023/01/04 13:04:29;;;;;;;;;;;;;;;;;;6101392;19;20511;-70
2023/01/04 13:06:39;;;;;;;10.38;2.42;;;;;;;;;;6104638;19;20466;-70
2023/01/04 13:08:47;;;;;;;13.77;2.90;;;;;;;;;;6101865;19;20490;-70
2023/01/04 13:10:54;;;;;;;9.98;2.67;;;;;;;;;;6102586;19;20051;-70
2023/01/04 13:13:24;;;;;;;14.00;2.90;;;;;;;;;;6099608;19;20018;-70
2023/01/04 13:15:42;;;;;;;13.95;3.60;;;;;;;;;;6100183;19;20097;-70
2023/01/04 13:17:49;;;;;;;13.35;3.72;;;;;;;;;;6098856;19;20524;-72
2023/01/04 13:19:59;;;;;;;13.48;4.97;;;;;;;;;;6103440;19;20010;-72
2023/01/04 13:22:04;;;;;;;12.52;2.22;;;;;;;;;;6097335;19;20027;-73
2023/01/04 13:24:25;;;;;;;13.02;2.72;;;;;;;;;;6103887;19;20018;-72
2023/01/04 13:26:38;;;;;;;8.70;2.35;;;;;;;;;;6099236;19;20015;-73
2023/01/04 13:28:43;;;;;;;13.23;3.47;;;;;;;;;;6101771;19;20014;-72
2023/01/04 13:30:48;;;;;;;19.30;3.25;;;;;;;;;;6101119;19;20463;-72
2023/01/04 13:32:53;;;;;;;7.57;2.53;;;;;;;;;;6102479;19;20519;-72
2023/01/04 13:35:18;;;;;;;16.40;2.92;;;;;;;;;;6100677;19;20649;-72
2023/01/04 13:37:31;;;;;;;9.88;2.90;;;;;;;;;;6103149;19;20049;-72